sensor_id;sensor_type;location;lat;lon;timestamp;pressure;altitude;pressure_sealevel;temperature;humidity
7824;BME280;3957;48.61947800;9.05303100;2023-07-29T00:00:39;95744.84;;;14.88;100.00
7824;BME280;3957;48.61947800;9.05303100;2023-07-29T00:01:41;95749.38;;;14.87;100.00
7824;BME280;3957;48.61947800;9.05303100;2023-07-29T00:02:43;95755.94;;;14.91;100.00
7824;BME280;3957;48.61947800;9.05303100;2023-07-29T00:03:45;95764.84;;;14.92;100.00
7824;BME280;3957;48.61947800;9.05303100;2023-07-29T00:04:47;95755.13;;;14.91;100.00
7824;BME280;3957;48.61947800;9.05303100;2023-07-29T00:05:49;95759.34;;;14.87;100.00
7824;BME280;3957;48.61947800;9.05303100;2023-07-29T00:06:50;95756.91;;;14.85;100.00
7824;BME280;3957;48.61947800;9.05303100;2023-07-29T00:07:52;95753.28;;;14.79;100.00
7824;BME280;3957;48.61947800;9.05303100;2023-07-29T00:08:53;95754.09;;;14.80;100.00
7824;BME280;3957;48.61947800;9.05303100;2023-07-29T00:09:55;95751.31;;;14.75;100.00
7824;BME280;3957;48.61947800;9.05303100;2023-07-29T00:10:56;95745.69;;;14.76;100.00
7824;BME280;3957;48.61947800;9.05303100;2023-07-29T00:11:58;95744.41;;;14.79;100.00
7824;BME280;3957;48.61947800;9.05303100;2023-07-29T00:12:59;95739.00;;;14.79;100.00
7824;BME280;3957;48.61947800;9.05303100;2023-07-29T00:14:01;95732.22;;;14.76;100.00
7824;BME280;3957;48.61947800;9.05303100;2023-07-29T00:15:03;95733.03;;;14.77;100.00
7824;BME280;3957;48.61947800;9.05303100;2023-07-29T00:16:05;95734.44;;;14.79;100.00
7824;BME280;3957;48.61947800;9.05303100;2023-07-29T00:17:07;95743.91;;;14.82;100.00
7824;BME280;3957;48.61947800;9.05303100;2023-07-29T00:18:09;95732.09;;;14.83;100.00
7824;BME280;3957;48.61947800;9.05303100;2023-07-29T00:19:10;95739.34;;;14.83;100.00
7824;BME280;3957;48.61947800;9.05303100;2023-07-29T00:20:12;95738.28;;;14.84;100.00
7824;BME280;3957;48.61947800;9.05303100;2023-07-29T00:21:13;95737.47;;;14.83;100.00
7824;BME280;3957;48.61947800;9.05303100;2023-07-29T00:22:15;95732.31;;;14.82;100.00
7824;BME280;3957;48.61947800;9.05303100;2023-07-29T00:23:17;95732.09;;;14.83;100.00
7824;BME280;3957;48.61947800;9.05303100;2023-07-29T00:24:20;95734.78;;;14.83;100.00
7824;BME280;3957;48.61947800;9.05303100;2023-07-29T00:25:21;95731.00;;;14.84;100.00
7824;BME280;3957;48.61947800;9.05303100;2023-07-29T00:26:23;95730.22;;;14.84;100.00
7824;BME280;3957;48.61947800;9.05303100;2023-07-29T00:27:27;95728.06;;;14.86;100.00
7824;BME280;3957;48.61947800;9.05303100;2023-07-29T00:28:29;95731.59;;;14.86;100.00
7824;BME280;3957;48.61947800;9.05303100;2023-07-29T00:29:30;95728.31;;;14.84;100.00
7824;BME280;3957;48.61947800;9.05303100;2023-07-29T00:30:32;95722.94;;;14.84;100.00
7824;BME280;3957;48.61947800;9.05303100;2023-07-29T00:31:34;95729.16;;;14.85;100.00
7824;BME280;3957;48.61947800;9.05303100;2023-07-29T00:32:35;95728.91;;;14.86;100.00
7824;BME280;3957;48.61947800;9.05303100;2023-07-29T00:33:37;95740.50;;;14.87;100.00
7824;BME280;3957;48.61947800;9.05303100;2023-07-29T00:34:39;95741.53;;;14.86;100.00
7824;BME280;3957;48.61947800;9.05303100;2023-07-29T00:35:41;95740.50;;;14.87;100.00
7824;BME280;3957;48.61947800;9.05303100;2023-07-29T00:36:42;95745.31;;;14.85;100.00
7824;BME280;3957;48.61947800;9.05303100;2023-07-29T00:37:44;95743.69;;;14.84;100.00
7824;BME280;3957;48.61947800;9.05303100;2023-07-29T00:38:45;95742.03;;;14.83;100.00
7824;BME280;3957;48.61947800;9.05303100;2023-07-29T00:39:47;95738.28;;;14.84;100.00
7824;BME280;3957;48.61947800;9.05303100;2023-07-29T00:40:48;95734.44;;;14.79;100.00
7824;BME280;3957;48.61947800;9.05303100;2023-07-29T00:41:51;95738.28;;;14.84;100.00
7824;BME280;3957;48.61947800;9.05303100;2023-07-29T00:42:52;95736.41;;;14.84;100.00
7824;BME280;3957;48.61947800;9.05303100;2023-07-29T00:43:54;95737.47;;;14.83;100.00
7824;BME280;3957;48.61947800;9.05303100;2023-07-29T00:44:56;95746.13;;;14.85;100.00
7824;BME280;3957;48.61947800;9.05303100;2023-07-29T00:45:59;95733.94;;;14.83;100.00
7824;BME280;3957;48.61947800;9.05303100;2023-07-29T00:47:03;95742.03;;;14.83;100.00
7824;BME280;3957;48.61947800;9.05303100;2023-07-29T00:48:06;95736.41;;;14.84;100.00
7824;BME280;3957;48.61947800;9.05303100;2023-07-29T00:49:08;95737.25;;;14.85;100.00
7824;BME280;3957;48.61947800;9.05303100;2023-07-29T00:50:11;95738.28;;;14.84;100.00
7824;BME280;3957;48.61947800;9.05303100;2023-07-29T00:51:13;95740.75;;;14.85;100.00
7824;BME280;3957;48.61947800;9.05303100;2023-07-29T00:52:14;95734.53;;;14.85;100.00
7824;BME280;3957;48.61947800;9.05303100;2023-07-29T00:53:16;95733.72;;;14.84;100.00
7824;BME280;3957;48.61947800;9.05303100;2023-07-29T00:54:17;95733.47;;;14.86;100.00
7824;BME280;3957;48.61947800;9.05303100;2023-07-29T00:55:19;95724.34;;;14.87;100.00
7824;BME280;3957;48.61947800;9.05303100;2023-07-29T00:56:21;95731.38;;;14.88;100.00
7824;BME280;3957;48.61947800;9.05303100;2023-07-29T00:57:23;95737.31;;;14.90;100.00
7824;BME280;3957;48.61947800;9.05303100;2023-07-29T00:58:28;95731.69;;;14.91;100.00
7824;BME280;3957;48.61947800;9.05303100;2023-07-29T00:59:30;95728.19;;;14.91;100.00
7824;BME280;3957;48.61947800;9.05303100;2023-07-29T01:00:33;95728.19;;;14.91;100.00
7824;BME280;3957;48.61947800;9.05303100;2023-07-29T01:01:38;95721.75;;;14.92;100.00
7824;BME280;3957;48.61947800;9.05303100;2023-07-29T01:02:40;95724.19;;;14.93;100.00
7824;BME280;3957;48.61947800;9.05303100;2023-07-29T01:03:42;95725.00;;;14.94;100.00
7824;BME280;3957;48.61947800;9.05303100;2023-07-29T01:04:54;95721.59;;;14.99;100.00
7824;BME280;3957;48.61947800;9.05303100;2023-07-29T01:07:35;95722.91;;;14.96;100.00
7824;BME280;3957;48.61947800;9.05303100;2023-07-29T01:08:47;95725.34;;;14.98;100.00
7824;BME280;3957;48.61947800;9.05303100;2023-07-29T01:10:04;95722.66;;;14.98;100.00
7824;BME280;3957;48.61947800;9.05303100;2023-07-29T01:12:37;95721.00;;;14.96;100.00
7824;BME280;3957;48.61947800;9.05303100;2023-07-29T01:13:50;95725.25;;;14.92;100.00
7824;BME280;3957;48.61947800;9.05303100;2023-07-29T01:15:03;95720.91;;;14.91;100.00
7824;BME280;3957;48.61947800;9.05303100;2023-07-29T01:16:23;95721.16;;;14.90;100.00
7824;BME280;3957;48.61947800;9.05303100;2023-07-29T01:17:33;95708.97;;;14.87;100.00
7824;BME280;3957;48.61947800;9.05303100;2023-07-29T01:18:38;95713.56;;;14.87;100.00
7824;BME280;3957;48.61947800;9.05303100;2023-07-29T01:20:01;95716.25;;;14.87;100.00
7824;BME280;3957;48.61947800;9.05303100;2023-07-29T01:21:08;95715.75;;;14.90;100.00
7824;BME280;3957;48.61947800;9.05303100;2023-07-29T01:22:13;95712.81;;;14.91;100.00
7824;BME280;3957;48.61947800;9.05303100;2023-07-29T01:23:15;95719.06;;;14.92;100.00
7824;BME280;3957;48.61947800;9.05303100;2023-07-29T01:24:17;95722.56;;;14.92;100.00
7824;BME280;3957;48.61947800;9.05303100;2023-07-29T01:25:18;95718.81;;;14.93;100.00
7824;BME280;3957;48.61947800;9.05303100;2023-07-29T01:26:20;95729.59;;;14.93;100.00
7824;BME280;3957;48.61947800;9.05303100;2023-07-29T01:27:21;95724.19;;;14.93;100.00
7824;BME280;3957;48.61947800;9.05303100;2023-07-29T01:28:24;95734.16;;;14.93;100.00
7824;BME280;3957;48.61947800;9.05303100;2023-07-29T01:29:27;95723.28;;;14.88;100.00
7824;BME280;3957;48.61947800;9.05303100;2023-07-29T01:30:33;95722.44;;;14.87;100.00
7824;BME280;3957;48.61947800;9.05303100;2023-07-29T01:31:43;95727.03;;;14.87;100.00
7824;BME280;3957;48.61947800;9.05303100;2023-07-29T01:32:54;95723.19;;;14.83;100.00
7824;BME280;3957;48.61947800;9.05303100;2023-07-29T01:34:26;95725.06;;;14.82;100.00
7824;BME280;3957;48.61947800;9.05303100;2023-07-29T01:35:39;95726.13;;;14.81;100.00
7824;BME280;3957;48.61947800;9.05303100;2023-07-29T01:36:45;95725.38;;;14.86;100.00
7824;BME280;3957;48.61947800;9.05303100;2023-07-29T01:37:51;95719.19;;;14.85;100.00
7824;BME280;3957;48.61947800;9.05303100;2023-07-29T01:38:54;95726.22;;;14.86;100.00
7824;BME280;3957;48.61947800;9.05303100;2023-07-29T01:39:59;95721.88;;;14.85;100.00
7824;BME280;3957;48.61947800;9.05303100;2023-07-29T01:41:04;95712.16;;;14.84;100.00
7824;BME280;3957;48.61947800;9.05303100;2023-07-29T01:42:07;95710.06;;;14.86;100.00
7824;BME280;3957;48.61947800;9.05303100;2023-07-29T01:43:10;95712.16;;;14.84;100.00
7824;BME280;3957;48.61947800;9.05303100;2023-07-29T01:44:12;95716.38;;;14.80;100.00
7824;BME280;3957;48.61947800;9.05303100;2023-07-29T01:45:15;95707.75;;;14.78;100.00
7824;BME280;3957;48.61947800;9.05303100;2023-07-29T01:46:16;95706.34;;;14.75;100.00
7824;BME280;3957;48.61947800;9.05303100;2023-07-29T01:47:18;95706.00;;;14.72;100.00
7824;BME280;3957;48.61947800;9.05303100;2023-07-29T01:48:20;95705.06;;;14.78;100.00
7824;BME280;3957;48.61947800;9.05303100;2023-07-29T01:49:23;95699.31;;;14.74;100.00
7824;BME280;3957;48.61947800;9.05303100;2023-07-29T01:50:24;95705.75;;;14.73;100.00
7824;BME280;3957;48.61947800;9.05303100;2023-07-29T01:51:26;95707.06;;;14.71;100.00
7824;BME280;3957;48.61947800;9.05303100;2023-07-29T01:52:27;95699.81;;;14.71;100.00
7824;BME280;3957;48.61947800;9.05303100;2023-07-29T01:53:29;95701.09;;;14.69;100.00
7824;BME280;3957;48.61947800;9.05303100;2023-07-29T01:54:31;95699.44;;;14.68;100.00
7824;BME280;3957;48.61947800;9.05303100;2023-07-29T01:55:32;95699.69;;;14.66;100.00
7824;BME280;3957;48.61947800;9.05303100;2023-07-29T01:56:34;95699.69;;;14.66;100.00
7824;BME280;3957;48.61947800;9.05303100;2023-07-29T01:57:36;95691.97;;;14.70;100.00
7824;BME280;3957;48.61947800;9.05303100;2023-07-29T01:58:38;95695.72;;;14.69;100.00
7824;BME280;3957;48.61947800;9.05303100;2023-07-29T01:59:39;95699.81;;;14.71;100.00
7824;BME280;3957;48.61947800;9.05303100;2023-07-29T02:00:42;95699.00;;;14.71;100.00
7824;BME280;3957;48.61947800;9.05303100;2023-07-29T02:01:43;95697.66;;;14.73;100.00
7824;BME280;3957;48.61947800;9.05303100;2023-07-29T02:02:45;95689.94;;;14.77;100.00
7824;BME280;3957;48.61947800;9.05303100;2023-07-29T02:03:47;95691.22;;;14.74;100.00
7824;BME280;3957;48.61947800;9.05303100;2023-07-29T02:04:54;95689.59;;;14.73;100.00
7824;BME280;3957;48.61947800;9.05303100;2023-07-29T02:05:57;95689.59;;;14.73;100.00
7824;BME280;3957;48.61947800;9.05303100;2023-07-29T02:06:58;95681.19;;;14.70;100.00
7824;BME280;3957;48.61947800;9.05303100;2023-07-29T02:08:00;95679.19;;;14.65;100.00
7824;BME280;3957;48.61947800;9.05303100;2023-07-29T02:09:02;95682.72;;;14.66;100.00
7824;BME280;3957;48.61947800;9.05303100;2023-07-29T02:10:06;95671.56;;;14.62;100.00
7824;BME280;3957;48.61947800;9.05303100;2023-07-29T02:11:07;95672.31;;;14.57;100.00
7824;BME280;3957;48.61947800;9.05303100;2023-07-29T02:12:09;95673.59;;;14.55;100.00
7824;BME280;3957;48.61947800;9.05303100;2023-07-29T02:13:11;95667.97;;;14.56;100.00
7824;BME280;3957;48.61947800;9.05303100;2023-07-29T02:14:13;95659.09;;;14.56;100.00
7824;BME280;3957;48.61947800;9.05303100;2023-07-29T02:15:15;95664.72;;;14.54;100.00
7824;BME280;3957;48.61947800;9.05303100;2023-07-29T02:16:16;95663.88;;;14.54;100.00
7824;BME280;3957;48.61947800;9.05303100;2023-07-29T02:17:18;95662.22;;;14.53;100.00
7824;BME280;3957;48.61947800;9.05303100;2023-07-29T02:18:19;95665.63;;;14.60;100.00
7824;BME280;3957;48.61947800;9.05303100;2023-07-29T02:19:21;95660.00;;;14.61;100.00
7824;BME280;3957;48.61947800;9.05303100;2023-07-29T02:20:23;95669.13;;;14.60;100.00
7824;BME280;3957;48.61947800;9.05303100;2023-07-29T02:21:25;95671.81;;;14.60;100.00
7824;BME280;3957;48.61947800;9.05303100;2023-07-29T02:22:27;95662.69;;;14.61;100.00
7824;BME280;3957;48.61947800;9.05303100;2023-07-29T02:23:28;95659.41;;;14.59;100.00
7824;BME280;3957;48.61947800;9.05303100;2023-07-29T02:24:30;95661.03;;;14.60;100.00
7824;BME280;3957;48.61947800;9.05303100;2023-07-29T02:25:35;95667.06;;;14.62;100.00
7824;BME280;3957;48.61947800;9.05303100;2023-07-29T02:26:37;95673.47;;;14.61;100.00
7824;BME280;3957;48.61947800;9.05303100;2023-07-29T02:27:39;95667.88;;;14.63;100.00
7824;BME280;3957;48.61947800;9.05303100;2023-07-29T02:28:41;95668.88;;;14.62;100.00
7824;BME280;3957;48.61947800;9.05303100;2023-07-29T02:29:42;95669.50;;;14.64;100.00
7824;BME280;3957;48.61947800;9.05303100;2023-07-29T02:30:44;95670.31;;;14.65;100.00
7824;BME280;3957;48.61947800;9.05303100;2023-07-29T02:31:47;95668.44;;;14.65;100.00
7824;BME280;3957;48.61947800;9.05303100;2023-07-29T02:32:49;95667.63;;;14.65;100.00
7824;BME280;3957;48.61947800;9.05303100;2023-07-29T02:33:51;95662.22;;;14.65;100.00
7824;BME280;3957;48.61947800;9.05303100;2023-07-29T02:34:53;95667.63;;;14.65;100.00
7824;BME280;3957;48.61947800;9.05303100;2023-07-29T02:35:55;95667.13;;;14.68;100.00
7824;BME280;3957;48.61947800;9.05303100;2023-07-29T02:36:57;95665.13;;;14.75;100.00
7824;BME280;3957;48.61947800;9.05303100;2023-07-29T02:37:58;95669.44;;;14.76;100.00
7824;BME280;3957;48.61947800;9.05303100;2023-07-29T02:39:00;95675.31;;;14.73;100.00
7824;BME280;3957;48.61947800;9.05303100;2023-07-29T02:40:01;95677.19;;;14.72;100.00
7824;BME280;3957;48.61947800;9.05303100;2023-07-29T02:41:03;95674.25;;;14.74;100.00
7824;BME280;3957;48.61947800;9.05303100;2023-07-29T02:42:05;95668.28;;;14.72;100.00
7824;BME280;3957;48.61947800;9.05303100;2023-07-29T02:43:07;95671.56;;;14.74;100.00
7824;BME280;3957;48.61947800;9.05303100;2023-07-29T02:44:08;95668.03;;;14.73;100.00
7824;BME280;3957;48.61947800;9.05303100;2023-07-29T02:45:10;95663.50;;;14.74;100.00
7824;BME280;3957;48.61947800;9.05303100;2023-07-29T02:46:13;95662.19;;;14.76;100.00
7824;BME280;3957;48.61947800;9.05303100;2023-07-29T02:47:14;95668.63;;;14.75;100.00
7824;BME280;3957;48.61947800;9.05303100;2023-07-29T02:48:16;95662.19;;;14.76;100.00
7824;BME280;3957;48.61947800;9.05303100;2023-07-29T02:49:17;95665.44;;;14.78;100.00
7824;BME280;3957;48.61947800;9.05303100;2023-07-29T02:50:19;95670.28;;;14.76;100.00
7824;BME280;3957;48.61947800;9.05303100;2023-07-29T02:51:20;95671.69;;;14.79;100.00
7824;BME280;3957;48.61947800;9.05303100;2023-07-29T02:52:22;95669.78;;;14.79;100.00
7824;BME280;3957;48.61947800;9.05303100;2023-07-29T02:53:24;95665.44;;;14.78;100.00
7824;BME280;3957;48.61947800;9.05303100;2023-07-29T02:54:26;95672.34;;;14.86;100.00
7824;BME280;3957;48.61947800;9.05303100;2023-07-29T02:55:27;95665.16;;;14.92;100.00
7824;BME280;3957;48.61947800;9.05303100;2023-07-29T02:56:29;95660.72;;;14.86;100.00
7824;BME280;3957;48.61947800;9.05303100;2023-07-29T02:57:32;95665.88;;;14.87;100.00
7824;BME280;3957;48.61947800;9.05303100;2023-07-29T02:58:34;95663.44;;;14.86;100.00
7824;BME280;3957;48.61947800;9.05303100;2023-07-29T02:59:35;95664.34;;;14.91;100.00
7824;BME280;3957;48.61947800;9.05303100;2023-07-29T03:00:37;95663.44;;;14.86;100.00
7824;BME280;3957;48.61947800;9.05303100;2023-07-29T03:01:38;95665.16;;;14.92;100.00
7824;BME280;3957;48.61947800;9.05303100;2023-07-29T03:02:40;95654.28;;;14.87;100.00
7824;BME280;3957;48.61947800;9.05303100;2023-07-29T03:03:42;95652.25;;;14.94;100.00
7824;BME280;3957;48.61947800;9.05303100;2023-07-29T03:04:43;95663.63;;;14.96;100.00
7824;BME280;3957;48.61947800;9.05303100;2023-07-29T03:05:45;95661.88;;;14.90;100.00
7824;BME280;3957;48.61947800;9.05303100;2023-07-29T03:06:47;95653.34;;;14.93;100.00
7824;BME280;3957;48.61947800;9.05303100;2023-07-29T03:07:49;95661.63;;;14.91;100.00
7824;BME280;3957;48.61947800;9.05303100;2023-07-29T03:08:51;95648.66;;;14.88;100.00
7824;BME280;3957;48.61947800;9.05303100;2023-07-29T03:09:52;95646.56;;;14.90;100.00
7824;BME280;3957;48.61947800;9.05303100;2023-07-29T03:10:55;95644.91;;;14.89;100.00
7824;BME280;3957;48.61947800;9.05303100;2023-07-29T03:11:56;95644.09;;;14.89;100.00
7824;BME280;3957;48.61947800;9.05303100;2023-07-29T03:12:58;95636.03;;;14.89;100.00
7824;BME280;3957;48.61947800;9.05303100;2023-07-29T03:14:00;95642.78;;;14.91;100.00
7824;BME280;3957;48.61947800;9.05303100;2023-07-29T03:15:04;95645.81;;;14.95;100.00
7824;BME280;3957;48.61947800;9.05303100;2023-07-29T03:16:06;95641.25;;;14.95;100.00
7824;BME280;3957;48.61947800;9.05303100;2023-07-29T03:17:08;95635.53;;;14.92;100.00
7824;BME280;3957;48.61947800;9.05303100;2023-07-29T03:18:10;95636.94;;;14.94;100.00
7824;BME280;3957;48.61947800;9.05303100;2023-07-29T03:19:12;95634.69;;;14.91;100.00
7824;BME280;3957;48.61947800;9.05303100;2023-07-29T03:20:14;95630.41;;;14.90;100.00
7824;BME280;3957;48.61947800;9.05303100;2023-07-29T03:21:16;95627.94;;;14.89;100.00
7824;BME280;3957;48.61947800;9.05303100;2023-07-29T03:22:17;95623.22;;;14.96;100.00
7824;BME280;3957;48.61947800;9.05303100;2023-07-29T03:23:19;95621.56;;;14.95;100.00
7824;BME280;3957;48.61947800;9.05303100;2023-07-29T03:24:20;95628.13;;;14.99;100.00
7824;BME280;3957;48.61947800;9.05303100;2023-07-29T03:25:22;95623.22;;;14.96;100.00
7824;BME280;3957;48.61947800;9.05303100;2023-07-29T03:26:24;95624.25;;;14.95;100.00
7824;BME280;3957;48.61947800;9.05303100;2023-07-29T03:27:26;95627.22;;;14.93;100.00
7824;BME280;3957;48.61947800;9.05303100;2023-07-29T03:28:29;95625.81;;;14.91;100.00
7824;BME280;3957;48.61947800;9.05303100;2023-07-29T03:29:31;95626.63;;;14.91;100.00
7824;BME280;3957;48.61947800;9.05303100;2023-07-29T03:30:33;95627.44;;;14.92;100.00
7824;BME280;3957;48.61947800;9.05303100;2023-07-29T03:31:34;95630.94;;;14.92;100.00
7824;BME280;3957;48.61947800;9.05303100;2023-07-29T03:32:42;95625.00;;;14.90;100.00
7824;BME280;3957;48.61947800;9.05303100;2023-07-29T03:33:46;95623.91;;;14.91;100.00
7824;BME280;3957;48.61947800;9.05303100;2023-07-29T03:34:48;95628.84;;;14.94;100.00
7824;BME280;3957;48.61947800;9.05303100;2023-07-29T03:35:49;95629.84;;;15.05;100.00
7824;BME280;3957;48.61947800;9.05303100;2023-07-29T03:36:51;95626.81;;;15.02;100.00
7824;BME280;3957;48.61947800;9.05303100;2023-07-29T03:37:53;95627.31;;;14.99;100.00
7824;BME280;3957;48.61947800;9.05303100;2023-07-29T03:38:54;95621.81;;;14.93;100.00
7824;BME280;3957;48.61947800;9.05303100;2023-07-29T03:39:56;95614.28;;;14.95;100.00
7824;BME280;3957;48.61947800;9.05303100;2023-07-29T03:40:57;95619.94;;;14.94;100.00
7824;BME280;3957;48.61947800;9.05303100;2023-07-29T03:41:59;95622.06;;;14.92;100.00
7824;BME280;3957;48.61947800;9.05303100;2023-07-29T03:43:01;95615.69;;;14.98;100.00
7824;BME280;3957;48.61947800;9.05303100;2023-07-29T03:44:02;95628.34;;;14.98;100.00
7824;BME280;3957;48.61947800;9.05303100;2023-07-29T03:45:04;95630.72;;;14.94;100.00
7824;BME280;3957;48.61947800;9.05303100;2023-07-29T03:46:06;95621.22;;;14.91;100.00
7824;BME280;3957;48.61947800;9.05303100;2023-07-29T03:47:13;95632.44;;;15.00;100.00
7824;BME280;3957;48.61947800;9.05303100;2023-07-29T03:48:17;95628.59;;;14.96;100.00
7824;BME280;3957;48.61947800;9.05303100;2023-07-29T03:49:18;95627.06;;;15.00;100.00
7824;BME280;3957;48.61947800;9.05303100;2023-07-29T03:50:20;95631.06;;;14.98;100.00
7824;BME280;3957;48.61947800;9.05303100;2023-07-29T03:51:22;95633.50;;;14.99;100.00
7824;BME280;3957;48.61947800;9.05303100;2023-07-29T03:52:24;95633.50;;;14.99;100.00
7824;BME280;3957;48.61947800;9.05303100;2023-07-29T03:53:25;95628.22;;;15.04;100.00
7824;BME280;3957;48.61947800;9.05303100;2023-07-29T03:54:27;95629.50;;;15.02;100.00
7824;BME280;3957;48.61947800;9.05303100;2023-07-29T03:55:29;95629.34;;;15.08;100.00
7824;BME280;3957;48.61947800;9.05303100;2023-07-29T03:56:31;95623.38;;;15.06;100.00
7824;BME280;3957;48.61947800;9.05303100;2023-07-29T03:57:32;95629.00;;;15.05;100.00
7824;BME280;3957;48.61947800;9.05303100;2023-07-29T03:58:34;95623.72;;;15.10;100.00
7824;BME280;3957;48.61947800;9.05303100;2023-07-29T03:59:36;95631.56;;;15.11;100.00
7824;BME280;3957;48.61947800;9.05303100;2023-07-29T04:00:37;95618.88;;;15.12;100.00
7824;BME280;3957;48.61947800;9.05303100;2023-07-29T04:01:39;95619.72;;;15.12;100.00
7824;BME280;3957;48.61947800;9.05303100;2023-07-29T04:02:42;95626.50;;;15.15;100.00
7824;BME280;3957;48.61947800;9.05303100;2023-07-29T04:03:45;95625.66;;;15.14;100.00
7824;BME280;3957;48.61947800;9.05303100;2023-07-29T04:04:48;95617.34;;;15.16;100.00
7824;BME280;3957;48.61947800;9.05303100;2023-07-29T04:05:50;95618.16;;;15.17;100.00
7824;BME280;3957;48.61947800;9.05303100;2023-07-29T04:06:52;95618.97;;;15.17;100.00
7824;BME280;3957;48.61947800;9.05303100;2023-07-29T04:07:54;95611.47;;;15.19;100.00
7824;BME280;3957;48.61947800;9.05303100;2023-07-29T04:08:56;95609.94;;;15.23;100.00
7824;BME280;3957;48.61947800;9.05303100;2023-07-29T04:09:58;95605.00;;;15.20;100.00
7824;BME280;3957;48.61947800;9.05303100;2023-07-29T04:11:00;95598.06;;;15.24;100.00
7824;BME280;3957;48.61947800;9.05303100;2023-07-29T04:12:02;95597.75;;;15.21;100.00
7824;BME280;3957;48.61947800;9.05303100;2023-07-29T04:13:03;95604.03;;;15.26;100.00
7824;BME280;3957;48.61947800;9.05303100;2023-07-29T04:14:05;95602.16;;;15.27;100.00
7824;BME280;3957;48.61947800;9.05303100;2023-07-29T04:15:07;95608.59;;;15.26;100.00
7824;BME280;3957;48.61947800;9.05303100;2023-07-29T04:16:08;95606.25;;;15.29;100.00
7824;BME280;3957;48.61947800;9.05303100;2023-07-29T04:17:10;95609.19;;;15.28;100.00
7824;BME280;3957;48.61947800;9.05303100;2023-07-29T04:18:11;95600.59;;;15.31;100.00
7824;BME280;3957;48.61947800;9.05303100;2023-07-29T04:19:13;95610.31;;;15.32;100.00
7824;BME280;3957;48.61947800;9.05303100;2023-07-29T04:20:15;95612.22;;;15.32;100.00
7824;BME280;3957;48.61947800;9.05303100;2023-07-29T04:21:16;95613.03;;;15.32;100.00
7824;BME280;3957;48.61947800;9.05303100;2023-07-29T04:22:18;95618.16;;;15.34;100.00
7824;BME280;3957;48.61947800;9.05303100;2023-07-29T04:23:20;95613.78;;;15.27;100.00
7824;BME280;3957;48.61947800;9.05303100;2023-07-29T04:24:21;95625.59;;;15.26;100.00
7824;BME280;3957;48.61947800;9.05303100;2023-07-29T04:25:24;95629.69;;;15.29;100.00
7824;BME280;3957;48.61947800;9.05303100;2023-07-29T04:26:26;95633.69;;;15.26;100.00
7824;BME280;3957;48.61947800;9.05303100;2023-07-29T04:27:28;95633.69;;;15.26;100.00
7824;BME280;3957;48.61947800;9.05303100;2023-07-29T04:28:29;95640.94;;;15.26;100.00
7824;BME280;3957;48.61947800;9.05303100;2023-07-29T04:29:31;95649.63;;;15.28;100.00
7824;BME280;3957;48.61947800;9.05303100;2023-07-29T04:30:32;95635.50;;;15.21;100.00
7824;BME280;3957;48.61947800;9.05303100;2023-07-29T04:31:34;95626.81;;;15.19;100.00
7824;BME280;3957;48.61947800;9.05303100;2023-07-29T04:32:36;95637.03;;;15.17;100.00
7824;BME280;3957;48.61947800;9.05303100;2023-07-29T04:33:41;95638.66;;;15.18;100.00
7824;BME280;3957;48.61947800;9.05303100;2023-07-29T04:34:43;95645.38;;;15.15;100.00
7824;BME280;3957;48.61947800;9.05303100;2023-07-29T04:35:45;95643.97;;;15.12;100.00
7824;BME280;3957;48.61947800;9.05303100;2023-07-29T04:36:47;95641.53;;;15.11;100.00
7824;BME280;3957;48.61947800;9.05303100;2023-07-29T04:37:49;95640.13;;;15.08;100.00
7824;BME280;3957;48.61947800;9.05303100;2023-07-29T04:38:51;95636.13;;;15.11;100.00
7824;BME280;3957;48.61947800;9.05303100;2023-07-29T04:39:53;95636.59;;;15.08;100.00
7824;BME280;3957;48.61947800;9.05303100;2023-07-29T04:40:54;95640.38;;;15.07;100.00
7824;BME280;3957;48.61947800;9.05303100;2023-07-29T04:41:56;95634.75;;;15.08;100.00
7824;BME280;3957;48.61947800;9.05303100;2023-07-29T04:43:00;95632.75;;;15.04;100.00
7824;BME280;3957;48.61947800;9.05303100;2023-07-29T04:44:02;95632.44;;;15.00;100.00
7824;BME280;3957;48.61947800;9.05303100;2023-07-29T04:45:04;95631.84;;;14.98;100.00
7824;BME280;3957;48.61947800;9.05303100;2023-07-29T04:46:07;95629.75;;;15.00;100.00
7824;BME280;3957;48.61947800;9.05303100;2023-07-29T04:47:10;95636.78;;;15.01;100.00
7824;BME280;3957;48.61947800;9.05303100;2023-07-29T04:48:11;95641.59;;;14.99;100.00
7824;BME280;3957;48.61947800;9.05303100;2023-07-29T04:49:13;95638.88;;;14.99;100.00
7824;BME280;3957;48.61947800;9.05303100;2023-07-29T04:50:15;95648.84;;;14.99;100.00
7824;BME280;3957;48.61947800;9.05303100;2023-07-29T04:51:16;95654.00;;;15.00;100.00
7824;BME280;3957;48.61947800;9.05303100;2023-07-29T04:52:18;95653.50;;;15.03;100.00
7824;BME280;3957;48.61947800;9.05303100;2023-07-29T04:53:21;95659.50;;;15.05;100.00
7824;BME280;3957;48.61947800;9.05303100;2023-07-29T04:54:22;95663.78;;;15.06;100.00
7824;BME280;3957;48.61947800;9.05303100;2023-07-29T04:55:24;95665.34;;;15.02;100.00
7824;BME280;3957;48.61947800;9.05303100;2023-07-29T04:56:25;95679.72;;;15.08;100.00
7824;BME280;3957;48.61947800;9.05303100;2023-07-29T04:57:27;95676.47;;;15.06;100.00
7824;BME280;3957;48.61947800;9.05303100;2023-07-29T04:58:29;95668.13;;;15.07;100.00
7824;BME280;3957;48.61947800;9.05303100;2023-07-29T04:59:32;95655.16;;;15.04;100.00